createdAt,value
2023-05-01T00:03:17.899Z,67.92
2023-05-01T00:13:21.879Z,68.48
2023-05-01T00:23:23.443Z,68.30
2023-05-01T00:33:24.806Z,68.91
2023-05-01T00:43:26.295Z,67.92
2023-05-01T00:53:28.598Z,68.95
2023-05-01T01:03:31.378Z,69.46
2023-05-01T01:13:42.934Z,69.46
2023-05-01T01:24:12.830Z,69.31
2023-05-01T01:34:20.400Z,69.14
2023-05-01T01:44:33.044Z,69.85
2023-05-01T01:54:40.740Z,70.04
2023-05-01T02:04:44.219Z,70.17
2023-05-01T02:14:48.216Z,70.92
2023-05-01T02:24:49.815Z,71.48
2023-05-01T02:34:51.288Z,70.98
2023-05-01T02:44:59.975Z,70.62
2023-05-01T02:55:02.506Z,72.01
2023-05-01T03:05:04.024Z,71.96
2023-05-01T03:15:05.857Z,72.25
2023-05-01T03:25:07.598Z,71.96
2023-05-01T03:35:09.357Z,72.56
2023-05-01T03:45:11.427Z,72.37
2023-05-01T03:55:12.786Z,73.66
2023-05-01T04:05:15.132Z,73.31
2023-05-01T04:15:16.664Z,72.34
2023-05-01T04:25:18.313Z,72.75
2023-05-01T04:35:19.823Z,75.49
2023-05-01T04:45:21.314Z,74.38
2023-05-01T04:55:22.898Z,73.60
2023-05-01T05:05:24.417Z,73.82
2023-05-01T05:15:25.883Z,74.03
2023-05-01T05:25:27.290Z,74.24
2023-05-01T05:35:28.670Z,76.38
2023-05-01T05:45:33.078Z,74.56
2023-05-01T05:55:34.548Z,76.42
2023-05-01T06:05:36.139Z,75.02
2023-05-01T06:15:38.195Z,73.54
2023-05-01T06:25:39.917Z,73.87
2023-05-01T06:35:41.290Z,74.42
2023-05-01T06:45:42.876Z,73.32
2023-05-01T06:55:44.199Z,72.04
2023-05-01T07:05:45.642Z,71.55
2023-05-01T07:15:46.988Z,70.72
2023-05-01T07:25:48.500Z,71.51
2023-05-01T07:35:50.133Z,68.46
2023-05-01T07:45:57.264Z,67.67
2023-05-01T07:56:09.341Z,67.74
2023-05-01T08:06:10.869Z,65.48
2023-05-01T08:16:12.520Z,63.87
2023-05-01T08:26:14.125Z,64.99
2023-05-01T08:36:15.594Z,64.77
2023-05-01T08:46:26.659Z,65.65
2023-05-01T08:56:31.165Z,60.78
2023-05-01T09:06:33.054Z,60.73
2023-05-01T09:16:34.994Z,60.21
2023-05-01T09:26:41.868Z,56.49
2023-05-01T09:36:47.052Z,57.33
2023-05-01T09:46:49.630Z,58.02
2023-05-01T09:56:51.033Z,55.51
2023-05-01T10:06:52.669Z,56.15
2023-05-01T10:16:54.551Z,61.97
2023-05-01T10:26:56.410Z,60.84
2023-05-01T10:37:02.726Z,57.92
2023-05-01T10:47:27.933Z,61.61
2023-05-01T10:57:43.973Z,59.54
2023-05-01T11:07:46.613Z,61.18
2023-05-01T11:17:49.583Z,58.74
2023-05-01T11:27:53.414Z,53.12
2023-05-01T11:37:58.059Z,61.43
2023-05-01T11:48:02.894Z,58.44
2023-05-01T11:58:05.494Z,56.51
2023-05-01T12:08:12.700Z,59.08
2023-05-01T12:18:15.525Z,59.70
2023-05-01T12:28:20.253Z,60.44
2023-05-01T12:38:22.895Z,57.78
2023-05-01T12:48:25.114Z,59.57
2023-05-01T12:58:38.765Z,53.52
2023-05-01T13:08:40.402Z,56.32
2023-05-01T13:18:48.065Z,54.07
2023-05-01T13:28:49.854Z,58.30
2023-05-01T13:38:56.660Z,57.64
2023-05-01T13:49:03.471Z,56.13
2023-05-01T13:59:06.327Z,57.59
2023-05-01T14:09:07.675Z,56.92
2023-05-01T14:19:09.487Z,54.35
2023-05-01T14:29:23.309Z,57.80
2023-05-01T14:39:26.350Z,55.86
2023-05-01T14:49:27.801Z,54.64
2023-05-01T14:59:29.286Z,57.40
2023-05-01T15:09:31.021Z,58.35
2023-05-01T15:19:32.596Z,59.52
2023-05-01T15:29:34.832Z,59.77
2023-05-01T15:39:39.322Z,60.12
2023-05-01T15:49:41.363Z,61.07
2023-05-01T15:59:42.853Z,68.32
2023-05-01T16:09:44.393Z,69.85
2023-05-01T16:19:46.599Z,77.55
2023-05-01T16:29:48.029Z,77.90
2023-05-01T16:39:49.469Z,79.87
2023-05-01T16:49:52.252Z,84.82
2023-05-01T16:59:54.112Z,80.71
2023-05-01T17:09:55.586Z,81.56
2023-05-01T17:19:57.452Z,84.66
2023-05-01T17:29:59.351Z,82.28
2023-05-01T17:40:01.713Z,79.75
2023-05-01T17:50:07.114Z,79.50
2023-05-01T18:00:10.094Z,79.74
2023-05-01T18:10:11.678Z,77.39
2023-05-01T18:20:13.145Z,78.41
2023-05-01T18:30:15.129Z,76.76
2023-05-01T18:40:16.677Z,78.59
2023-05-01T18:50:21.575Z,79.31
2023-05-01T19:00:23.056Z,76.68
2023-05-01T19:10:24.521Z,79.27
2023-05-01T19:20:26.086Z,78.97
2023-05-01T19:30:28.154Z,80.41
2023-05-01T19:40:29.548Z,79.44
2023-05-01T19:50:32.909Z,79.85
2023-05-01T20:00:34.970Z,81.52
2023-05-01T20:10:36.408Z,84.53
2023-05-01T20:20:37.746Z,79.58
2023-05-01T20:30:40.988Z,80.62
2023-05-01T20:40:42.638Z,80.58
2023-05-01T20:50:45.519Z,82.37
2023-05-01T21:00:47.220Z,81.41
2023-05-01T21:10:48.780Z,81.66
2023-05-01T21:20:50.261Z,81.79
2023-05-01T21:30:51.680Z,83.69
2023-05-01T21:40:53.041Z,81.94
2023-05-01T21:50:54.494Z,86.24
2023-05-01T22:00:56.004Z,87.74
2023-05-01T22:10:58.049Z,87.01
2023-05-01T22:21:01.250Z,90.05
2023-05-01T22:31:03.264Z,84.77
2023-05-01T22:41:04.680Z,86.18
2023-05-01T22:51:06.677Z,83.78
2023-05-01T23:01:08.347Z,84.04
2023-05-01T23:11:16.727Z,86.78
2023-05-01T23:21:19.249Z,86.94
2023-05-01T23:31:25.313Z,86.49
2023-05-01T23:41:28.162Z,86.43
2023-05-01T23:51:31.318Z,88.99
